sensor_id;sensor_type;location;lat;lon;timestamp;P1;durP1;ratioP1;P2;durP2;ratioP2
27889;SDS011;15238;49.082;9.102;2023-04-25T00:01:11;4.57;;;2.92;;
27889;SDS011;15238;49.082;9.102;2023-04-25T00:03:13;4.25;;;2.58;;
27889;SDS011;15238;49.082;9.102;2023-04-25T00:05:14;5.32;;;2.50;;
27889;SDS011;15238;49.082;9.102;2023-04-25T00:07:15;3.40;;;2.67;;
27889;SDS011;15238;49.082;9.102;2023-04-25T00:09:16;3.28;;;2.53;;
27889;SDS011;15238;49.082;9.102;2023-04-25T00:11:17;3.65;;;3.00;;
27889;SDS011;15238;49.082;9.102;2023-04-25T00:13:17;10.63;;;2.92;;
27889;SDS011;15238;49.082;9.102;2023-04-25T00:15:19;4.85;;;2.95;;
27889;SDS011;15238;49.082;9.102;2023-04-25T00:17:19;4.43;;;2.75;;
27889;SDS011;15238;49.082;9.102;2023-04-25T00:19:20;3.95;;;3.08;;
27889;SDS011;15238;49.082;9.102;2023-04-25T00:21:20;6.97;;;3.17;;
27889;SDS011;15238;49.082;9.102;2023-04-25T00:23:24;3.55;;;2.78;;
27889;SDS011;15238;49.082;9.102;2023-04-25T00:25:24;4.90;;;3.78;;
27889;SDS011;15238;49.082;9.102;2023-04-25T00:27:25;3.47;;;2.97;;
27889;SDS011;15238;49.082;9.102;2023-04-25T00:29:26;9.13;;;3.50;;
27889;SDS011;15238;49.082;9.102;2023-04-25T00:31:27;3.92;;;3.10;;
27889;SDS011;15238;49.082;9.102;2023-04-25T00:33:29;4.82;;;3.45;;
27889;SDS011;15238;49.082;9.102;2023-04-25T00:35:29;3.53;;;3.22;;
27889;SDS011;15238;49.082;9.102;2023-04-25T00:37:30;3.97;;;3.03;;
27889;SDS011;15238;49.082;9.102;2023-04-25T00:39:31;3.88;;;2.88;;
27889;SDS011;15238;49.082;9.102;2023-04-25T00:41:32;4.40;;;2.80;;
27889;SDS011;15238;49.082;9.102;2023-04-25T00:43:33;5.50;;;2.75;;
27889;SDS011;15238;49.082;9.102;2023-04-25T00:45:33;4.07;;;2.90;;
27889;SDS011;15238;49.082;9.102;2023-04-25T00:47:38;3.70;;;2.85;;
27889;SDS011;15238;49.082;9.102;2023-04-25T00:49:40;5.35;;;2.75;;
27889;SDS011;15238;49.082;9.102;2023-04-25T00:51:40;4.78;;;3.20;;
27889;SDS011;15238;49.082;9.102;2023-04-25T00:53:41;3.33;;;2.78;;
27889;SDS011;15238;49.082;9.102;2023-04-25T00:55:42;3.50;;;2.60;;
27889;SDS011;15238;49.082;9.102;2023-04-25T00:57:43;4.13;;;2.50;;
27889;SDS011;15238;49.082;9.102;2023-04-25T00:59:45;4.97;;;2.92;;
27889;SDS011;15238;49.082;9.102;2023-04-25T01:01:46;3.83;;;2.60;;
27889;SDS011;15238;49.082;9.102;2023-04-25T01:03:47;4.50;;;2.60;;
27889;SDS011;15238;49.082;9.102;2023-04-25T01:05:49;5.03;;;2.33;;
27889;SDS011;15238;49.082;9.102;2023-04-25T01:07:50;3.50;;;2.25;;
27889;SDS011;15238;49.082;9.102;2023-04-25T01:09:52;3.28;;;2.53;;
27889;SDS011;15238;49.082;9.102;2023-04-25T01:11:52;4.28;;;2.15;;
27889;SDS011;15238;49.082;9.102;2023-04-25T01:13:53;3.83;;;2.67;;
27889;SDS011;15238;49.082;9.102;2023-04-25T01:15:53;5.13;;;2.90;;
27889;SDS011;15238;49.082;9.102;2023-04-25T01:17:54;5.07;;;3.00;;
27889;SDS011;15238;49.082;9.102;2023-04-25T01:19:56;3.10;;;2.80;;
27889;SDS011;15238;49.082;9.102;2023-04-25T01:21:57;2.90;;;2.35;;
27889;SDS011;15238;49.082;9.102;2023-04-25T01:23:58;3.25;;;2.33;;
27889;SDS011;15238;49.082;9.102;2023-04-25T01:25:58;3.08;;;2.05;;
27889;SDS011;15238;49.082;9.102;2023-04-25T01:28:00;2.28;;;2.00;;
27889;SDS011;15238;49.082;9.102;2023-04-25T01:30:01;3.25;;;2.25;;
27889;SDS011;15238;49.082;9.102;2023-04-25T01:32:01;4.15;;;2.83;;
27889;SDS011;15238;49.082;9.102;2023-04-25T01:34:03;5.53;;;2.25;;
27889;SDS011;15238;49.082;9.102;2023-04-25T01:36:03;2.65;;;2.28;;
27889;SDS011;15238;49.082;9.102;2023-04-25T01:38:04;3.42;;;2.30;;
27889;SDS011;15238;49.082;9.102;2023-04-25T01:40:05;3.80;;;2.20;;
27889;SDS011;15238;49.082;9.102;2023-04-25T01:42:07;4.90;;;2.53;;
27889;SDS011;15238;49.082;9.102;2023-04-25T01:44:08;3.80;;;2.55;;
27889;SDS011;15238;49.082;9.102;2023-04-25T01:46:08;5.32;;;2.30;;
27889;SDS011;15238;49.082;9.102;2023-04-25T01:48:11;3.85;;;2.40;;
27889;SDS011;15238;49.082;9.102;2023-04-25T01:50:14;3.58;;;2.40;;
27889;SDS011;15238;49.082;9.102;2023-04-25T01:52:16;4.65;;;2.63;;
27889;SDS011;15238;49.082;9.102;2023-04-25T01:54:16;3.55;;;2.42;;
27889;SDS011;15238;49.082;9.102;2023-04-25T01:56:18;3.83;;;2.83;;
27889;SDS011;15238;49.082;9.102;2023-04-25T01:58:19;3.22;;;2.28;;
27889;SDS011;15238;49.082;9.102;2023-04-25T02:00:19;3.13;;;2.30;;
27889;SDS011;15238;49.082;9.102;2023-04-25T02:02:20;7.00;;;2.67;;
27889;SDS011;15238;49.082;9.102;2023-04-25T02:04:21;6.32;;;2.63;;
27889;SDS011;15238;49.082;9.102;2023-04-25T02:06:21;3.88;;;2.55;;
27889;SDS011;15238;49.082;9.102;2023-04-25T02:08:22;2.88;;;2.30;;
27889;SDS011;15238;49.082;9.102;2023-04-25T02:10:22;2.63;;;2.30;;
27889;SDS011;15238;49.082;9.102;2023-04-25T02:12:23;4.03;;;2.22;;
27889;SDS011;15238;49.082;9.102;2023-04-25T02:14:26;4.65;;;2.08;;
27889;SDS011;15238;49.082;9.102;2023-04-25T02:16:26;6.80;;;2.58;;
27889;SDS011;15238;49.082;9.102;2023-04-25T02:18:27;3.83;;;2.33;;
27889;SDS011;15238;49.082;9.102;2023-04-25T02:20:28;3.35;;;2.22;;
27889;SDS011;15238;49.082;9.102;2023-04-25T02:22:30;4.03;;;2.30;;
27889;SDS011;15238;49.082;9.102;2023-04-25T02:24:30;4.38;;;2.33;;
27889;SDS011;15238;49.082;9.102;2023-04-25T02:26:33;2.92;;;1.98;;
27889;SDS011;15238;49.082;9.102;2023-04-25T02:28:34;4.53;;;2.35;;
27889;SDS011;15238;49.082;9.102;2023-04-25T02:30:34;4.03;;;2.85;;
27889;SDS011;15238;49.082;9.102;2023-04-25T02:32:35;2.72;;;2.20;;
27889;SDS011;15238;49.082;9.102;2023-04-25T02:34:36;5.22;;;2.58;;
27889;SDS011;15238;49.082;9.102;2023-04-25T02:36:36;4.97;;;2.90;;
27889;SDS011;15238;49.082;9.102;2023-04-25T02:38:37;4.78;;;2.83;;
27889;SDS011;15238;49.082;9.102;2023-04-25T02:40:38;3.58;;;2.33;;
27889;SDS011;15238;49.082;9.102;2023-04-25T02:42:38;5.60;;;3.40;;
27889;SDS011;15238;49.082;9.102;2023-04-25T02:44:39;2.53;;;2.15;;
27889;SDS011;15238;49.082;9.102;2023-04-25T02:46:39;4.18;;;2.47;;
27889;SDS011;15238;49.082;9.102;2023-04-25T02:48:40;6.55;;;2.85;;
27889;SDS011;15238;49.082;9.102;2023-04-25T02:50:40;5.07;;;2.97;;
27889;SDS011;15238;49.082;9.102;2023-04-25T02:52:41;4.60;;;2.72;;
27889;SDS011;15238;49.082;9.102;2023-04-25T02:54:42;4.18;;;2.38;;
27889;SDS011;15238;49.082;9.102;2023-04-25T02:56:42;3.33;;;2.30;;
27889;SDS011;15238;49.082;9.102;2023-04-25T02:58:43;2.80;;;2.00;;
27889;SDS011;15238;49.082;9.102;2023-04-25T03:00:43;3.22;;;2.30;;
27889;SDS011;15238;49.082;9.102;2023-04-25T03:02:44;2.72;;;2.35;;
27889;SDS011;15238;49.082;9.102;2023-04-25T03:04:44;4.57;;;2.33;;
27889;SDS011;15238;49.082;9.102;2023-04-25T03:06:46;2.45;;;2.15;;
27889;SDS011;15238;49.082;9.102;2023-04-25T03:08:46;2.97;;;2.40;;
27889;SDS011;15238;49.082;9.102;2023-04-25T03:10:47;5.65;;;2.58;;
27889;SDS011;15238;49.082;9.102;2023-04-25T03:12:48;3.95;;;2.63;;
27889;SDS011;15238;49.082;9.102;2023-04-25T03:14:48;2.47;;;2.28;;
27889;SDS011;15238;49.082;9.102;2023-04-25T03:16:49;3.60;;;2.10;;
27889;SDS011;15238;49.082;9.102;2023-04-25T03:18:49;3.20;;;2.45;;
27889;SDS011;15238;49.082;9.102;2023-04-25T03:20:50;2.45;;;2.17;;
27889;SDS011;15238;49.082;9.102;2023-04-25T03:22:51;3.05;;;2.33;;
27889;SDS011;15238;49.082;9.102;2023-04-25T03:24:51;4.03;;;2.53;;
27889;SDS011;15238;49.082;9.102;2023-04-25T03:26:52;5.13;;;2.55;;
27889;SDS011;15238;49.082;9.102;2023-04-25T03:28:52;2.85;;;2.40;;
27889;SDS011;15238;49.082;9.102;2023-04-25T03:30:53;4.05;;;2.40;;
27889;SDS011;15238;49.082;9.102;2023-04-25T03:32:54;2.88;;;2.42;;
27889;SDS011;15238;49.082;9.102;2023-04-25T03:34:55;4.10;;;2.60;;
27889;SDS011;15238;49.082;9.102;2023-04-25T03:36:55;3.60;;;2.85;;
27889;SDS011;15238;49.082;9.102;2023-04-25T03:38:56;4.47;;;2.63;;
27889;SDS011;15238;49.082;9.102;2023-04-25T03:40:56;3.35;;;3.00;;
27889;SDS011;15238;49.082;9.102;2023-04-25T03:42:57;4.15;;;2.90;;
27889;SDS011;15238;49.082;9.102;2023-04-25T03:44:57;5.03;;;3.50;;
27889;SDS011;15238;49.082;9.102;2023-04-25T03:46:58;4.88;;;3.50;;
27889;SDS011;15238;49.082;9.102;2023-04-25T03:48:58;7.32;;;3.15;;
27889;SDS011;15238;49.082;9.102;2023-04-25T03:50:59;5.82;;;3.22;;
27889;SDS011;15238;49.082;9.102;2023-04-25T03:52:59;3.63;;;3.13;;
27889;SDS011;15238;49.082;9.102;2023-04-25T03:55:00;5.03;;;3.28;;
27889;SDS011;15238;49.082;9.102;2023-04-25T03:57:00;3.63;;;3.13;;
27889;SDS011;15238;49.082;9.102;2023-04-25T03:59:01;4.95;;;3.22;;
27889;SDS011;15238;49.082;9.102;2023-04-25T04:01:01;6.72;;;3.60;;
27889;SDS011;15238;49.082;9.102;2023-04-25T04:03:07;6.03;;;3.85;;
27889;SDS011;15238;49.082;9.102;2023-04-25T04:05:08;3.30;;;3.00;;
27889;SDS011;15238;49.082;9.102;2023-04-25T04:07:09;5.18;;;3.30;;
27889;SDS011;15238;49.082;9.102;2023-04-25T04:09:10;5.57;;;3.15;;
27889;SDS011;15238;49.082;9.102;2023-04-25T04:11:12;4.50;;;3.28;;
27889;SDS011;15238;49.082;9.102;2023-04-25T04:13:12;7.57;;;4.43;;
27889;SDS011;15238;49.082;9.102;2023-04-25T04:15:13;8.15;;;3.85;;
27889;SDS011;15238;49.082;9.102;2023-04-25T04:17:14;4.28;;;3.17;;
27889;SDS011;15238;49.082;9.102;2023-04-25T04:19:14;4.32;;;3.60;;
27889;SDS011;15238;49.082;9.102;2023-04-25T04:21:15;4.45;;;3.50;;
27889;SDS011;15238;49.082;9.102;2023-04-25T04:23:16;4.22;;;3.83;;
27889;SDS011;15238;49.082;9.102;2023-04-25T04:25:16;5.40;;;3.53;;
27889;SDS011;15238;49.082;9.102;2023-04-25T04:27:18;4.88;;;3.28;;
27889;SDS011;15238;49.082;9.102;2023-04-25T04:29:19;6.75;;;3.72;;
27889;SDS011;15238;49.082;9.102;2023-04-25T04:31:22;6.20;;;4.05;;
27889;SDS011;15238;49.082;9.102;2023-04-25T04:33:23;3.75;;;3.33;;
27889;SDS011;15238;49.082;9.102;2023-04-25T04:35:24;4.80;;;3.83;;
27889;SDS011;15238;49.082;9.102;2023-04-25T04:37:25;6.25;;;3.75;;
27889;SDS011;15238;49.082;9.102;2023-04-25T04:39:25;4.50;;;3.30;;
27889;SDS011;15238;49.082;9.102;2023-04-25T04:41:26;6.80;;;4.22;;
27889;SDS011;15238;49.082;9.102;2023-04-25T04:43:26;5.65;;;4.05;;
27889;SDS011;15238;49.082;9.102;2023-04-25T04:45:28;4.85;;;4.20;;
27889;SDS011;15238;49.082;9.102;2023-04-25T04:47:29;5.22;;;4.22;;
27889;SDS011;15238;49.082;9.102;2023-04-25T04:49:32;6.63;;;4.30;;
27889;SDS011;15238;49.082;9.102;2023-04-25T04:51:33;5.70;;;3.97;;
27889;SDS011;15238;49.082;9.102;2023-04-25T04:53:33;5.28;;;4.13;;
27889;SDS011;15238;49.082;9.102;2023-04-25T04:55:34;6.90;;;4.32;;
27889;SDS011;15238;49.082;9.102;2023-04-25T04:57:35;4.70;;;3.88;;
27889;SDS011;15238;49.082;9.102;2023-04-25T04:59:35;6.05;;;3.85;;
27889;SDS011;15238;49.082;9.102;2023-04-25T05:01:36;6.20;;;4.35;;
27889;SDS011;15238;49.082;9.102;2023-04-25T05:03:37;5.15;;;4.40;;
27889;SDS011;15238;49.082;9.102;2023-04-25T05:05:37;6.30;;;4.15;;
27889;SDS011;15238;49.082;9.102;2023-04-25T05:07:39;6.18;;;4.05;;
27889;SDS011;15238;49.082;9.102;2023-04-25T05:09:40;8.15;;;4.55;;
27889;SDS011;15238;49.082;9.102;2023-04-25T05:11:41;6.07;;;4.40;;
27889;SDS011;15238;49.082;9.102;2023-04-25T05:13:41;5.90;;;4.18;;
27889;SDS011;15238;49.082;9.102;2023-04-25T05:15:42;5.10;;;3.97;;
27889;SDS011;15238;49.082;9.102;2023-04-25T05:17:42;4.68;;;3.63;;
27889;SDS011;15238;49.082;9.102;2023-04-25T05:19:43;4.97;;;4.25;;
27889;SDS011;15238;49.082;9.102;2023-04-25T05:21:43;6.15;;;4.40;;
27889;SDS011;15238;49.082;9.102;2023-04-25T05:23:44;6.22;;;4.15;;
27889;SDS011;15238;49.082;9.102;2023-04-25T05:25:44;6.03;;;4.30;;
27889;SDS011;15238;49.082;9.102;2023-04-25T05:27:45;6.57;;;4.95;;
27889;SDS011;15238;49.082;9.102;2023-04-25T05:29:45;6.85;;;4.50;;
27889;SDS011;15238;49.082;9.102;2023-04-25T05:31:46;6.53;;;4.53;;
27889;SDS011;15238;49.082;9.102;2023-04-25T05:33:48;5.88;;;4.22;;
27889;SDS011;15238;49.082;9.102;2023-04-25T05:35:48;5.57;;;4.57;;
27889;SDS011;15238;49.082;9.102;2023-04-25T05:37:49;6.82;;;4.70;;
27889;SDS011;15238;49.082;9.102;2023-04-25T05:39:49;6.13;;;4.40;;
27889;SDS011;15238;49.082;9.102;2023-04-25T05:41:50;6.47;;;4.28;;
27889;SDS011;15238;49.082;9.102;2023-04-25T05:43:50;7.05;;;5.88;;
27889;SDS011;15238;49.082;9.102;2023-04-25T05:45:51;5.05;;;4.18;;
27889;SDS011;15238;49.082;9.102;2023-04-25T05:47:51;5.20;;;4.40;;
27889;SDS011;15238;49.082;9.102;2023-04-25T05:49:52;5.68;;;3.78;;
27889;SDS011;15238;49.082;9.102;2023-04-25T05:51:52;6.30;;;4.53;;
27889;SDS011;15238;49.082;9.102;2023-04-25T05:53:53;4.88;;;4.05;;
27889;SDS011;15238;49.082;9.102;2023-04-25T05:55:53;5.18;;;3.80;;
27889;SDS011;15238;49.082;9.102;2023-04-25T05:57:54;7.80;;;4.30;;
27889;SDS011;15238;49.082;9.102;2023-04-25T05:59:54;4.85;;;4.35;;
27889;SDS011;15238;49.082;9.102;2023-04-25T06:01:55;5.10;;;4.13;;
27889;SDS011;15238;49.082;9.102;2023-04-25T06:03:56;8.18;;;4.30;;
27889;SDS011;15238;49.082;9.102;2023-04-25T06:05:56;6.40;;;4.07;;
27889;SDS011;15238;49.082;9.102;2023-04-25T06:07:56;4.35;;;3.92;;
27889;SDS011;15238;49.082;9.102;2023-04-25T06:09:57;6.93;;;3.85;;
27889;SDS011;15238;49.082;9.102;2023-04-25T06:11:58;8.75;;;4.95;;
27889;SDS011;15238;49.082;9.102;2023-04-25T06:13:58;5.00;;;4.00;;
27889;SDS011;15238;49.082;9.102;2023-04-25T06:15:59;4.28;;;3.88;;
27889;SDS011;15238;49.082;9.102;2023-04-25T06:17:59;5.32;;;4.03;;
27889;SDS011;15238;49.082;9.102;2023-04-25T06:20:00;4.80;;;3.63;;
27889;SDS011;15238;49.082;9.102;2023-04-25T06:22:01;4.95;;;3.85;;
27889;SDS011;15238;49.082;9.102;2023-04-25T06:24:02;4.07;;;3.40;;
27889;SDS011;15238;49.082;9.102;2023-04-25T06:26:03;4.78;;;3.35;;
27889;SDS011;15238;49.082;9.102;2023-04-25T06:28:03;4.25;;;3.60;;
27889;SDS011;15238;49.082;9.102;2023-04-25T06:30:04;3.30;;;3.00;;
27889;SDS011;15238;49.082;9.102;2023-04-25T06:32:06;4.35;;;3.90;;
27889;SDS011;15238;49.082;9.102;2023-04-25T06:34:06;3.83;;;3.25;;
27889;SDS011;15238;49.082;9.102;2023-04-25T06:36:07;7.03;;;3.30;;
27889;SDS011;15238;49.082;9.102;2023-04-25T06:38:07;4.40;;;3.50;;
27889;SDS011;15238;49.082;9.102;2023-04-25T06:40:08;3.08;;;2.63;;
27889;SDS011;15238;49.082;9.102;2023-04-25T06:42:09;3.17;;;2.70;;
27889;SDS011;15238;49.082;9.102;2023-04-25T06:44:10;5.72;;;2.80;;
27889;SDS011;15238;49.082;9.102;2023-04-25T06:46:10;3.13;;;2.83;;
27889;SDS011;15238;49.082;9.102;2023-04-25T06:48:11;4.35;;;3.47;;
27889;SDS011;15238;49.082;9.102;2023-04-25T06:50:11;4.53;;;3.38;;
27889;SDS011;15238;49.082;9.102;2023-04-25T06:52:12;4.32;;;3.55;;
27889;SDS011;15238;49.082;9.102;2023-04-25T06:54:12;4.13;;;3.03;;
27889;SDS011;15238;49.082;9.102;2023-04-25T06:56:13;4.78;;;3.60;;
27889;SDS011;15238;49.082;9.102;2023-04-25T06:58:13;4.30;;;3.65;;
27889;SDS011;15238;49.082;9.102;2023-04-25T07:00:14;3.75;;;3.35;;
27889;SDS011;15238;49.082;9.102;2023-04-25T07:02:15;5.68;;;3.80;;
27889;SDS011;15238;49.082;9.102;2023-04-25T07:04:15;4.72;;;3.78;;
27889;SDS011;15238;49.082;9.102;2023-04-25T07:06:16;6.20;;;3.95;;
27889;SDS011;15238;49.082;9.102;2023-04-25T07:08:16;4.45;;;3.97;;
27889;SDS011;15238;49.082;9.102;2023-04-25T07:10:17;4.45;;;4.05;;
27889;SDS011;15238;49.082;9.102;2023-04-25T07:12:18;4.80;;;4.10;;
27889;SDS011;15238;49.082;9.102;2023-04-25T07:14:18;6.32;;;4.55;;
27889;SDS011;15238;49.082;9.102;2023-04-25T07:16:19;5.80;;;4.65;;
27889;SDS011;15238;49.082;9.102;2023-04-25T07:18:19;7.68;;;5.38;;
27889;SDS011;15238;49.082;9.102;2023-04-25T07:20:20;6.60;;;4.45;;
27889;SDS011;15238;49.082;9.102;2023-04-25T07:22:20;6.10;;;4.82;;
27889;SDS011;15238;49.082;9.102;2023-04-25T07:24:21;6.72;;;4.45;;
27889;SDS011;15238;49.082;9.102;2023-04-25T07:26:21;6.30;;;4.75;;
27889;SDS011;15238;49.082;9.102;2023-04-25T07:28:22;6.80;;;4.88;;
27889;SDS011;15238;49.082;9.102;2023-04-25T07:30:23;4.97;;;4.40;;
27889;SDS011;15238;49.082;9.102;2023-04-25T07:32:25;6.53;;;4.35;;
27889;SDS011;15238;49.082;9.102;2023-04-25T07:34:26;4.70;;;4.13;;
27889;SDS011;15238;49.082;9.102;2023-04-25T07:36:26;5.55;;;4.80;;
27889;SDS011;15238;49.082;9.102;2023-04-25T07:38:27;6.13;;;4.18;;
27889;SDS011;15238;49.082;9.102;2023-04-25T07:40:27;6.60;;;5.00;;
27889;SDS011;15238;49.082;9.102;2023-04-25T07:42:28;8.45;;;4.78;;
27889;SDS011;15238;49.082;9.102;2023-04-25T07:44:29;5.80;;;4.72;;
27889;SDS011;15238;49.082;9.102;2023-04-25T07:46:30;6.35;;;4.45;;
27889;SDS011;15238;49.082;9.102;2023-04-25T07:48:31;8.35;;;4.90;;
27889;SDS011;15238;49.082;9.102;2023-04-25T07:50:31;5.97;;;4.72;;
27889;SDS011;15238;49.082;9.102;2023-04-25T07:52:32;5.38;;;4.50;;
27889;SDS011;15238;49.082;9.102;2023-04-25T07:54:32;5.60;;;4.93;;
27889;SDS011;15238;49.082;9.102;2023-04-25T07:56:33;8.43;;;4.60;;
27889;SDS011;15238;49.082;9.102;2023-04-25T07:58:33;7.07;;;5.00;;
27889;SDS011;15238;49.082;9.102;2023-04-25T08:00:34;6.18;;;5.03;;
27889;SDS011;15238;49.082;9.102;2023-04-25T08:02:35;11.27;;;5.38;;
27889;SDS011;15238;49.082;9.102;2023-04-25T08:04:36;7.95;;;4.55;;
27889;SDS011;15238;49.082;9.102;2023-04-25T08:06:36;6.38;;;4.40;;
27889;SDS011;15238;49.082;9.102;2023-04-25T08:08:37;5.05;;;4.55;;
27889;SDS011;15238;49.082;9.102;2023-04-25T08:10:37;6.07;;;4.85;;
27889;SDS011;15238;49.082;9.102;2023-04-25T08:12:38;6.97;;;5.43;;
27889;SDS011;15238;49.082;9.102;2023-04-25T08:14:39;6.45;;;5.07;;
27889;SDS011;15238;49.082;9.102;2023-04-25T08:16:40;5.60;;;4.97;;
27889;SDS011;15238;49.082;9.102;2023-04-25T08:18:40;6.43;;;5.40;;
27889;SDS011;15238;49.082;9.102;2023-04-25T08:20:41;6.75;;;5.25;;
27889;SDS011;15238;49.082;9.102;2023-04-25T08:22:42;6.43;;;5.07;;
27889;SDS011;15238;49.082;9.102;2023-04-25T08:24:42;5.85;;;4.88;;
27889;SDS011;15238;49.082;9.102;2023-04-25T08:26:43;6.28;;;4.93;;
27889;SDS011;15238;49.082;9.102;2023-04-25T08:28:43;7.03;;;5.60;;
27889;SDS011;15238;49.082;9.102;2023-04-25T08:30:44;6.65;;;5.63;;
27889;SDS011;15238;49.082;9.102;2023-04-25T08:32:44;6.95;;;4.85;;
27889;SDS011;15238;49.082;9.102;2023-04-25T08:34:45;6.30;;;5.05;;
27889;SDS011;15238;49.082;9.102;2023-04-25T08:36:46;6.72;;;5.88;;
27889;SDS011;15238;49.082;9.102;2023-04-25T08:38:47;7.32;;;5.25;;
27889;SDS011;15238;49.082;9.102;2023-04-25T08:40:49;7.88;;;5.93;;
27889;SDS011;15238;49.082;9.102;2023-04-25T08:42:53;8.43;;;6.35;;
27889;SDS011;15238;49.082;9.102;2023-04-25T08:44:55;8.07;;;5.95;;
27889;SDS011;15238;49.082;9.102;2023-04-25T08:46:57;8.07;;;6.00;;
27889;SDS011;15238;49.082;9.102;2023-04-25T08:49:00;8.48;;;5.72;;
27889;SDS011;15238;49.082;9.102;2023-04-25T08:51:02;8.90;;;6.05;;
27889;SDS011;15238;49.082;9.102;2023-04-25T08:53:05;6.53;;;5.60;;
27889;SDS011;15238;49.082;9.102;2023-04-25T08:55:08;8.02;;;5.20;;
27889;SDS011;15238;49.082;9.102;2023-04-25T08:57:11;7.82;;;6.20;;
27889;SDS011;15238;49.082;9.102;2023-04-25T08:59:13;9.05;;;6.82;;
27889;SDS011;15238;49.082;9.102;2023-04-25T09:01:14;8.18;;;6.57;;
27889;SDS011;15238;49.082;9.102;2023-04-25T09:03:15;9.05;;;6.32;;
27889;SDS011;15238;49.082;9.102;2023-04-25T09:05:16;8.23;;;7.05;;
27889;SDS011;15238;49.082;9.102;2023-04-25T09:07:16;7.25;;;6.38;;
27889;SDS011;15238;49.082;9.102;2023-04-25T09:09:21;7.80;;;6.20;;
27889;SDS011;15238;49.082;9.102;2023-04-25T09:11:21;8.25;;;6.47;;
27889;SDS011;15238;49.082;9.102;2023-04-25T09:13:25;11.52;;;7.32;;
27889;SDS011;15238;49.082;9.102;2023-04-25T09:15:27;10.75;;;7.38;;
27889;SDS011;15238;49.082;9.102;2023-04-25T09:17:28;8.57;;;5.80;;
27889;SDS011;15238;49.082;9.102;2023-04-25T09:19:30;7.68;;;6.28;;
27889;SDS011;15238;49.082;9.102;2023-04-25T09:21:32;8.13;;;6.60;;
27889;SDS011;15238;49.082;9.102;2023-04-25T09:23:41;8.68;;;6.70;;
27889;SDS011;15238;49.082;9.102;2023-04-25T09:25:44;8.60;;;6.10;;
27889;SDS011;15238;49.082;9.102;2023-04-25T09:27:52;8.38;;;6.32;;
27889;SDS011;15238;49.082;9.102;2023-04-25T09:29:57;8.40;;;6.65;;
27889;SDS011;15238;49.082;9.102;2023-04-25T09:34:15;6.28;;;3.92;;
27889;SDS011;15238;49.082;9.102;2023-04-25T09:36:17;4.03;;;2.75;;
27889;SDS011;15238;49.082;9.102;2023-04-25T09:38:18;4.43;;;2.80;;
27889;SDS011;15238;49.082;9.102;2023-04-25T09:40:19;3.47;;;2.78;;
27889;SDS011;15238;49.082;9.102;2023-04-25T09:42:23;2.65;;;2.30;;
27889;SDS011;15238;49.082;9.102;2023-04-25T09:44:25;4.88;;;2.20;;
27889;SDS011;15238;49.082;9.102;2023-04-25T09:46:32;3.15;;;1.70;;
27889;SDS011;15238;49.082;9.102;2023-04-25T09:48:35;1.85;;;1.60;;
27889;SDS011;15238;49.082;9.102;2023-04-25T09:50:36;2.78;;;2.00;;
27889;SDS011;15238;49.082;9.102;2023-04-25T09:52:36;3.80;;;2.05;;
27889;SDS011;15238;49.082;9.102;2023-04-25T09:54:37;5.57;;;2.03;;
27889;SDS011;15238;49.082;9.102;2023-04-25T09:56:38;2.58;;;1.85;;
27889;SDS011;15238;49.082;9.102;2023-04-25T09:58:39;4.50;;;2.45;;
27889;SDS011;15238;49.082;9.102;2023-04-25T10:00:41;3.92;;;2.58;;
27889;SDS011;15238;49.082;9.102;2023-04-25T10:02:42;2.95;;;1.80;;
27889;SDS011;15238;49.082;9.102;2023-04-25T10:04:49;2.28;;;1.55;;
27889;SDS011;15238;49.082;9.102;2023-04-25T10:06:53;2.13;;;1.80;;
27889;SDS011;15238;49.082;9.102;2023-04-25T10:08:55;3.72;;;1.60;;
27889;SDS011;15238;49.082;9.102;2023-04-25T10:10:59;2.58;;;1.30;;
27889;SDS011;15238;49.082;9.102;2023-04-25T10:13:04;2.25;;;1.50;;
27889;SDS011;15238;49.082;9.102;2023-04-25T10:15:06;5.60;;;2.28;;
27889;SDS011;15238;49.082;9.102;2023-04-25T10:17:09;2.50;;;2.05;;
27889;SDS011;15238;49.082;9.102;2023-04-25T10:19:11;5.20;;;2.13;;
27889;SDS011;15238;49.082;9.102;2023-04-25T10:21:13;2.92;;;2.20;;
27889;SDS011;15238;49.082;9.102;2023-04-25T10:23:15;4.05;;;2.65;;
27889;SDS011;15238;49.082;9.102;2023-04-25T10:25:17;4.38;;;2.78;;
27889;SDS011;15238;49.082;9.102;2023-04-25T10:27:17;3.75;;;2.80;;
27889;SDS011;15238;49.082;9.102;2023-04-25T10:29:22;3.70;;;2.75;;
27889;SDS011;15238;49.082;9.102;2023-04-25T10:31:24;3.65;;;2.42;;
27889;SDS011;15238;49.082;9.102;2023-04-25T10:35:36;5.55;;;2.72;;
27889;SDS011;15238;49.082;9.102;2023-04-25T10:37:37;3.95;;;2.90;;
27889;SDS011;15238;49.082;9.102;2023-04-25T10:39:41;4.30;;;3.05;;
27889;SDS011;15238;49.082;9.102;2023-04-25T10:44:12;6.53;;;3.55;;
27889;SDS011;15238;49.082;9.102;2023-04-25T10:48:25;8.27;;;4.03;;
27889;SDS011;15238;49.082;9.102;2023-04-25T10:50:31;4.53;;;4.03;;
27889;SDS011;15238;49.082;9.102;2023-04-25T10:52:40;4.85;;;4.20;;
27889;SDS011;15238;49.082;9.102;2023-04-25T10:54:42;7.68;;;4.68;;
27889;SDS011;15238;49.082;9.102;2023-04-25T10:56:48;6.30;;;4.70;;
27889;SDS011;15238;49.082;9.102;2023-04-25T10:58:49;5.03;;;4.30;;
27889;SDS011;15238;49.082;9.102;2023-04-25T11:00:49;6.43;;;4.57;;
27889;SDS011;15238;49.082;9.102;2023-04-25T11:02:55;5.55;;;4.57;;
27889;SDS011;15238;49.082;9.102;2023-04-25T11:04:58;6.00;;;4.55;;
27889;SDS011;15238;49.082;9.102;2023-04-25T11:09:10;6.22;;;4.90;;
27889;SDS011;15238;49.082;9.102;2023-04-25T11:11:13;6.85;;;5.53;;
27889;SDS011;15238;49.082;9.102;2023-04-25T11:13:14;7.63;;;6.15;;
27889;SDS011;15238;49.082;9.102;2023-04-25T11:15:15;8.75;;;6.90;;
27889;SDS011;15238;49.082;9.102;2023-04-25T11:17:15;10.30;;;7.50;;
27889;SDS011;15238;49.082;9.102;2023-04-25T11:19:16;10.73;;;7.50;;
27889;SDS011;15238;49.082;9.102;2023-04-25T11:21:19;12.30;;;8.35;;
27889;SDS011;15238;49.082;9.102;2023-04-25T11:23:20;11.88;;;8.20;;
27889;SDS011;15238;49.082;9.102;2023-04-25T11:25:21;16.35;;;9.55;;
27889;SDS011;15238;49.082;9.102;2023-04-25T11:27:24;13.70;;;9.90;;
27889;SDS011;15238;49.082;9.102;2023-04-25T11:29:28;14.25;;;9.70;;
27889;SDS011;15238;49.082;9.102;2023-04-25T11:31:30;14.63;;;10.23;;
27889;SDS011;15238;49.082;9.102;2023-04-25T11:33:30;18.23;;;9.50;;
27889;SDS011;15238;49.082;9.102;2023-04-25T11:35:31;18.85;;;9.23;;
27889;SDS011;15238;49.082;9.102;2023-04-25T11:37:33;19.95;;;10.77;;
27889;SDS011;15238;49.082;9.102;2023-04-25T11:39:34;19.48;;;12.27;;
27889;SDS011;15238;49.082;9.102;2023-04-25T11:41:35;20.25;;;11.38;;
27889;SDS011;15238;49.082;9.102;2023-04-25T11:43:37;20.92;;;10.35;;
27889;SDS011;15238;49.082;9.102;2023-04-25T11:45:38;25.05;;;11.68;;
27889;SDS011;15238;49.082;9.102;2023-04-25T11:47:39;16.42;;;9.95;;
27889;SDS011;15238;49.082;9.102;2023-04-25T11:49:40;14.48;;;9.30;;
27889;SDS011;15238;49.082;9.102;2023-04-25T11:51:44;16.80;;;9.88;;
27889;SDS011;15238;49.082;9.102;2023-04-25T11:53:45;19.67;;;9.27;;
27889;SDS011;15238;49.082;9.102;2023-04-25T11:55:46;11.50;;;8.75;;
27889;SDS011;15238;49.082;9.102;2023-04-25T11:57:47;15.50;;;8.10;;
27889;SDS011;15238;49.082;9.102;2023-04-25T11:59:50;15.60;;;8.38;;
27889;SDS011;15238;49.082;9.102;2023-04-25T12:01:50;11.27;;;6.78;;
27889;SDS011;15238;49.082;9.102;2023-04-25T12:03:51;13.98;;;7.15;;
27889;SDS011;15238;49.082;9.102;2023-04-25T12:05:51;19.17;;;8.75;;
27889;SDS011;15238;49.082;9.102;2023-04-25T12:07:52;15.20;;;8.35;;
27889;SDS011;15238;49.082;9.102;2023-04-25T12:09:52;12.75;;;7.65;;
27889;SDS011;15238;49.082;9.102;2023-04-25T12:11:57;11.82;;;7.22;;
27889;SDS011;15238;49.082;9.102;2023-04-25T12:14:02;13.77;;;7.82;;
27889;SDS011;15238;49.082;9.102;2023-04-25T12:16:04;12.95;;;7.43;;
27889;SDS011;15238;49.082;9.102;2023-04-25T12:18:04;13.25;;;7.70;;
27889;SDS011;15238;49.082;9.102;2023-04-25T12:20:07;15.93;;;8.18;;